sensor_id;sensor_type;location;lat;lon;timestamp;temperature;humidity
25983;DHT22;13773;48.868;10.730;2023-09-08T00:01:55;14.30;99.90
25983;DHT22;13773;48.868;10.730;2023-09-08T00:04:21;14.30;99.90
25983;DHT22;13773;48.868;10.730;2023-09-08T00:06:47;14.50;99.90
25983;DHT22;13773;48.868;10.730;2023-09-08T00:09:13;14.40;99.90
25983;DHT22;13773;48.868;10.730;2023-09-08T00:11:39;14.40;99.90
25983;DHT22;13773;48.868;10.730;2023-09-08T00:14:04;14.50;99.90
25983;DHT22;13773;48.868;10.730;2023-09-08T00:16:30;14.40;99.90
25983;DHT22;13773;48.868;10.730;2023-09-08T00:18:56;14.30;99.90
25983;DHT22;13773;48.868;10.730;2023-09-08T00:21:25;14.30;99.90
25983;DHT22;13773;48.868;10.730;2023-09-08T00:23:54;14.30;99.90
25983;DHT22;13773;48.868;10.730;2023-09-08T00:26:20;14.30;99.90
25983;DHT22;13773;48.868;10.730;2023-09-08T00:28:46;14.30;99.90
25983;DHT22;13773;48.868;10.730;2023-09-08T00:31:12;14.30;99.90
25983;DHT22;13773;48.868;10.730;2023-09-08T00:33:38;14.30;99.90
25983;DHT22;13773;48.868;10.730;2023-09-08T00:36:04;14.20;99.90
25983;DHT22;13773;48.868;10.730;2023-09-08T00:38:29;14.10;99.90
25983;DHT22;13773;48.868;10.730;2023-09-08T00:40:55;14.10;99.90
25983;DHT22;13773;48.868;10.730;2023-09-08T00:43:21;14.00;99.90
25983;DHT22;13773;48.868;10.730;2023-09-08T00:45:47;14.10;99.90
25983;DHT22;13773;48.868;10.730;2023-09-08T00:48:13;14.00;99.90
25983;DHT22;13773;48.868;10.730;2023-09-08T00:50:39;13.90;99.90
25983;DHT22;13773;48.868;10.730;2023-09-08T00:53:06;13.90;99.90
25983;DHT22;13773;48.868;10.730;2023-09-08T00:55:32;13.90;99.90
25983;DHT22;13773;48.868;10.730;2023-09-08T00:57:58;13.80;99.90
25983;DHT22;13773;48.868;10.730;2023-09-08T01:00:25;13.80;99.90
25983;DHT22;13773;48.868;10.730;2023-09-08T01:02:51;13.80;99.90
25983;DHT22;13773;48.868;10.730;2023-09-08T01:05:17;13.70;99.90
25983;DHT22;13773;48.868;10.730;2023-09-08T01:07:43;13.80;99.90
25983;DHT22;13773;48.868;10.730;2023-09-08T01:10:09;13.80;99.90
25983;DHT22;13773;48.868;10.730;2023-09-08T01:12:35;13.70;99.90
25983;DHT22;13773;48.868;10.730;2023-09-08T01:15:03;13.70;99.90
25983;DHT22;13773;48.868;10.730;2023-09-08T01:17:30;13.60;99.90
25983;DHT22;13773;48.868;10.730;2023-09-08T01:19:56;13.60;99.90
25983;DHT22;13773;48.868;10.730;2023-09-08T01:25:23;13.60;99.90
25983;DHT22;13773;48.868;10.730;2023-09-08T01:28:00;13.50;99.90
25983;DHT22;13773;48.868;10.730;2023-09-08T01:30:28;13.40;99.90
25983;DHT22;13773;48.868;10.730;2023-09-08T01:32:58;13.70;99.90
25983;DHT22;13773;48.868;10.730;2023-09-08T01:35:24;13.50;99.90
25983;DHT22;13773;48.868;10.730;2023-09-08T01:37:50;13.40;99.90
25983;DHT22;13773;48.868;10.730;2023-09-08T01:40:15;13.60;99.90
25983;DHT22;13773;48.868;10.730;2023-09-08T01:42:42;13.50;99.90
25983;DHT22;13773;48.868;10.730;2023-09-08T01:45:08;13.50;99.90
25983;DHT22;13773;48.868;10.730;2023-09-08T01:47:34;13.50;99.90
25983;DHT22;13773;48.868;10.730;2023-09-08T01:50:00;13.50;99.90
25983;DHT22;13773;48.868;10.730;2023-09-08T01:52:27;13.70;99.90
25983;DHT22;13773;48.868;10.730;2023-09-08T01:54:52;13.70;99.90
25983;DHT22;13773;48.868;10.730;2023-09-08T01:57:18;13.60;99.90
25983;DHT22;13773;48.868;10.730;2023-09-08T01:59:44;13.50;99.90
25983;DHT22;13773;48.868;10.730;2023-09-08T02:02:13;13.60;99.90
25983;DHT22;13773;48.868;10.730;2023-09-08T02:04:39;13.80;99.90
25983;DHT22;13773;48.868;10.730;2023-09-08T02:07:05;14.00;99.90
25983;DHT22;13773;48.868;10.730;2023-09-08T02:09:32;14.20;99.90
25983;DHT22;13773;48.868;10.730;2023-09-08T02:11:58;14.30;99.90
25983;DHT22;13773;48.868;10.730;2023-09-08T02:14:24;14.50;99.90
25983;DHT22;13773;48.868;10.730;2023-09-08T02:16:49;14.50;99.90
25983;DHT22;13773;48.868;10.730;2023-09-08T02:19:15;14.20;99.90
25983;DHT22;13773;48.868;10.730;2023-09-08T02:21:41;14.20;99.90
25983;DHT22;13773;48.868;10.730;2023-09-08T02:24:06;14.30;99.90
25983;DHT22;13773;48.868;10.730;2023-09-08T02:26:32;14.40;99.90
25983;DHT22;13773;48.868;10.730;2023-09-08T02:28:59;14.50;99.90
25983;DHT22;13773;48.868;10.730;2023-09-08T02:31:26;14.50;99.90
25983;DHT22;13773;48.868;10.730;2023-09-08T02:33:52;14.30;99.90
25983;DHT22;13773;48.868;10.730;2023-09-08T02:36:18;14.10;99.90
25983;DHT22;13773;48.868;10.730;2023-09-08T02:38:54;14.10;99.90
25983;DHT22;13773;48.868;10.730;2023-09-08T02:41:20;14.00;99.90
25983;DHT22;13773;48.868;10.730;2023-09-08T02:43:46;13.80;99.90
25983;DHT22;13773;48.868;10.730;2023-09-08T02:46:12;13.90;99.90
25983;DHT22;13773;48.868;10.730;2023-09-08T02:48:38;13.70;99.90
25983;DHT22;13773;48.868;10.730;2023-09-08T02:51:04;13.60;99.90
25983;DHT22;13773;48.868;10.730;2023-09-08T02:53:30;13.40;99.90
25983;DHT22;13773;48.868;10.730;2023-09-08T02:55:56;13.20;99.90
25983;DHT22;13773;48.868;10.730;2023-09-08T02:58:22;13.00;99.90
25983;DHT22;13773;48.868;10.730;2023-09-08T03:00:48;12.90;99.90
25983;DHT22;13773;48.868;10.730;2023-09-08T03:03:13;12.90;99.90
25983;DHT22;13773;48.868;10.730;2023-09-08T03:05:39;12.70;99.90
25983;DHT22;13773;48.868;10.730;2023-09-08T03:08:05;12.60;99.90
25983;DHT22;13773;48.868;10.730;2023-09-08T03:10:32;12.50;99.90
25983;DHT22;13773;48.868;10.730;2023-09-08T03:13:03;12.50;99.90
25983;DHT22;13773;48.868;10.730;2023-09-08T03:15:29;12.40;99.90
25983;DHT22;13773;48.868;10.730;2023-09-08T03:17:55;12.30;99.90
25983;DHT22;13773;48.868;10.730;2023-09-08T03:20:22;12.30;99.90
25983;DHT22;13773;48.868;10.730;2023-09-08T03:22:48;12.30;99.90
25983;DHT22;13773;48.868;10.730;2023-09-08T03:25:14;12.20;99.90
25983;DHT22;13773;48.868;10.730;2023-09-08T03:27:40;12.30;99.90
25983;DHT22;13773;48.868;10.730;2023-09-08T03:30:06;12.20;99.90
25983;DHT22;13773;48.868;10.730;2023-09-08T03:32:33;12.30;99.90
25983;DHT22;13773;48.868;10.730;2023-09-08T03:34:58;12.30;99.90
25983;DHT22;13773;48.868;10.730;2023-09-08T03:37:24;12.30;99.90
25983;DHT22;13773;48.868;10.730;2023-09-08T03:39:52;12.30;99.90
25983;DHT22;13773;48.868;10.730;2023-09-08T03:42:18;12.20;99.90
25983;DHT22;13773;48.868;10.730;2023-09-08T03:44:43;12.30;99.90
25983;DHT22;13773;48.868;10.730;2023-09-08T03:47:09;12.40;99.90
25983;DHT22;13773;48.868;10.730;2023-09-08T03:49:35;12.40;99.90
25983;DHT22;13773;48.868;10.730;2023-09-08T03:52:00;12.40;99.90
25983;DHT22;13773;48.868;10.730;2023-09-08T03:54:26;12.30;99.90
25983;DHT22;13773;48.868;10.730;2023-09-08T03:56:52;12.30;99.90
25983;DHT22;13773;48.868;10.730;2023-09-08T03:59:17;12.20;99.90
25983;DHT22;13773;48.868;10.730;2023-09-08T04:01:43;12.20;99.90
25983;DHT22;13773;48.868;10.730;2023-09-08T04:04:09;12.10;99.90
25983;DHT22;13773;48.868;10.730;2023-09-08T04:06:34;12.00;99.90
25983;DHT22;13773;48.868;10.730;2023-09-08T04:09:00;12.00;99.90
25983;DHT22;13773;48.868;10.730;2023-09-08T04:11:26;12.10;99.90
25983;DHT22;13773;48.868;10.730;2023-09-08T04:13:52;12.10;99.90
25983;DHT22;13773;48.868;10.730;2023-09-08T04:16:17;12.20;99.90
25983;DHT22;13773;48.868;10.730;2023-09-08T04:18:43;12.20;99.90
25983;DHT22;13773;48.868;10.730;2023-09-08T04:21:10;12.10;99.90
25983;DHT22;13773;48.868;10.730;2023-09-08T04:23:35;12.00;99.90
25983;DHT22;13773;48.868;10.730;2023-09-08T04:26:01;11.90;99.90
25983;DHT22;13773;48.868;10.730;2023-09-08T04:28:27;11.90;99.90
25983;DHT22;13773;48.868;10.730;2023-09-08T04:30:52;11.80;99.90
25983;DHT22;13773;48.868;10.730;2023-09-08T04:33:18;11.80;99.90
25983;DHT22;13773;48.868;10.730;2023-09-08T04:35:44;11.80;99.90
25983;DHT22;13773;48.868;10.730;2023-09-08T04:38:09;11.60;99.90
25983;DHT22;13773;48.868;10.730;2023-09-08T04:40:35;11.60;99.90
25983;DHT22;13773;48.868;10.730;2023-09-08T04:43:01;11.70;99.90
25983;DHT22;13773;48.868;10.730;2023-09-08T04:45:26;11.60;99.90
25983;DHT22;13773;48.868;10.730;2023-09-08T04:47:52;11.60;99.90
25983;DHT22;13773;48.868;10.730;2023-09-08T04:50:18;11.50;99.90
25983;DHT22;13773;48.868;10.730;2023-09-08T04:52:43;11.50;99.90
25983;DHT22;13773;48.868;10.730;2023-09-08T04:55:10;11.60;99.90
25983;DHT22;13773;48.868;10.730;2023-09-08T04:57:35;11.60;99.90
25983;DHT22;13773;48.868;10.730;2023-09-08T05:00:02;11.70;99.90
25983;DHT22;13773;48.868;10.730;2023-09-08T05:02:28;11.70;99.90
25983;DHT22;13773;48.868;10.730;2023-09-08T05:04:53;11.70;99.90
25983;DHT22;13773;48.868;10.730;2023-09-08T05:07:19;11.60;99.90
25983;DHT22;13773;48.868;10.730;2023-09-08T05:09:45;11.80;99.90
25983;DHT22;13773;48.868;10.730;2023-09-08T05:12:10;11.80;99.90
25983;DHT22;13773;48.868;10.730;2023-09-08T05:14:36;11.80;99.90
25983;DHT22;13773;48.868;10.730;2023-09-08T05:17:03;11.90;99.90
25983;DHT22;13773;48.868;10.730;2023-09-08T05:19:30;12.00;99.90
25983;DHT22;13773;48.868;10.730;2023-09-08T05:21:56;11.90;99.90
25983;DHT22;13773;48.868;10.730;2023-09-08T05:24:21;11.90;99.90
25983;DHT22;13773;48.868;10.730;2023-09-08T05:26:47;11.90;99.90
25983;DHT22;13773;48.868;10.730;2023-09-08T05:29:13;11.80;99.90
25983;DHT22;13773;48.868;10.730;2023-09-08T05:31:39;11.80;99.90
25983;DHT22;13773;48.868;10.730;2023-09-08T05:34:05;11.80;99.90
25983;DHT22;13773;48.868;10.730;2023-09-08T05:36:31;11.80;99.90
25983;DHT22;13773;48.868;10.730;2023-09-08T05:38:59;11.80;99.90
25983;DHT22;13773;48.868;10.730;2023-09-08T05:41:25;11.80;99.90
25983;DHT22;13773;48.868;10.730;2023-09-08T05:43:50;11.80;99.90
25983;DHT22;13773;48.868;10.730;2023-09-08T05:46:16;11.80;99.90
25983;DHT22;13773;48.868;10.730;2023-09-08T05:48:42;11.90;99.90
25983;DHT22;13773;48.868;10.730;2023-09-08T05:51:08;11.90;99.90
25983;DHT22;13773;48.868;10.730;2023-09-08T05:53:34;11.90;99.90
25983;DHT22;13773;48.868;10.730;2023-09-08T05:56:01;12.00;99.90
25983;DHT22;13773;48.868;10.730;2023-09-08T05:58:27;12.00;99.90
25983;DHT22;13773;48.868;10.730;2023-09-08T06:00:53;12.00;99.90
25983;DHT22;13773;48.868;10.730;2023-09-08T06:03:19;12.10;99.90
25983;DHT22;13773;48.868;10.730;2023-09-08T06:05:45;12.20;99.90
25983;DHT22;13773;48.868;10.730;2023-09-08T06:08:11;12.40;99.90
25983;DHT22;13773;48.868;10.730;2023-09-08T06:10:37;12.60;99.90
25983;DHT22;13773;48.868;10.730;2023-09-08T06:13:04;12.70;99.90
25983;DHT22;13773;48.868;10.730;2023-09-08T06:15:29;12.80;99.90
25983;DHT22;13773;48.868;10.730;2023-09-08T06:17:55;12.90;99.90
25983;DHT22;13773;48.868;10.730;2023-09-08T06:20:21;12.90;99.90
25983;DHT22;13773;48.868;10.730;2023-09-08T06:22:47;13.00;99.90
25983;DHT22;13773;48.868;10.730;2023-09-08T06:25:12;13.00;99.90
25983;DHT22;13773;48.868;10.730;2023-09-08T06:27:39;13.10;99.90
25983;DHT22;13773;48.868;10.730;2023-09-08T06:30:05;13.20;99.90
25983;DHT22;13773;48.868;10.730;2023-09-08T06:32:31;13.30;99.90
25983;DHT22;13773;48.868;10.730;2023-09-08T06:34:56;13.40;99.90
25983;DHT22;13773;48.868;10.730;2023-09-08T06:37:22;13.40;99.90
25983;DHT22;13773;48.868;10.730;2023-09-08T06:39:48;13.50;99.90
25983;DHT22;13773;48.868;10.730;2023-09-08T06:42:13;13.50;99.90
25983;DHT22;13773;48.868;10.730;2023-09-08T06:44:39;13.60;99.90
25983;DHT22;13773;48.868;10.730;2023-09-08T06:47:05;13.70;99.90
25983;DHT22;13773;48.868;10.730;2023-09-08T06:49:32;13.90;99.90
25983;DHT22;13773;48.868;10.730;2023-09-08T06:51:58;14.20;99.90
25983;DHT22;13773;48.868;10.730;2023-09-08T06:54:24;14.40;99.90
25983;DHT22;13773;48.868;10.730;2023-09-08T06:56:49;14.60;99.90
25983;DHT22;13773;48.868;10.730;2023-09-08T06:59:15;14.90;99.90
25983;DHT22;13773;48.868;10.730;2023-09-08T07:01:42;15.00;99.90
25983;DHT22;13773;48.868;10.730;2023-09-08T07:04:08;17.70;99.90
25983;DHT22;13773;48.868;10.730;2023-09-08T07:06:34;16.10;99.90
25983;DHT22;13773;48.868;10.730;2023-09-08T07:09:01;16.40;99.90
25983;DHT22;13773;48.868;10.730;2023-09-08T07:11:27;16.60;99.90
25983;DHT22;13773;48.868;10.730;2023-09-08T07:13:53;16.80;99.90
25983;DHT22;13773;48.868;10.730;2023-09-08T07:16:18;17.00;99.90
25983;DHT22;13773;48.868;10.730;2023-09-08T07:18:44;17.10;99.90
25983;DHT22;13773;48.868;10.730;2023-09-08T07:21:10;17.20;99.90
25983;DHT22;13773;48.868;10.730;2023-09-08T07:23:35;17.30;99.90
25983;DHT22;13773;48.868;10.730;2023-09-08T07:26:02;17.60;99.90
25983;DHT22;13773;48.868;10.730;2023-09-08T07:28:28;17.70;99.90
25983;DHT22;13773;48.868;10.730;2023-09-08T07:31:01;17.80;99.90
25983;DHT22;13773;48.868;10.730;2023-09-08T07:33:27;17.80;99.90
25983;DHT22;13773;48.868;10.730;2023-09-08T07:35:53;17.90;99.90
25983;DHT22;13773;48.868;10.730;2023-09-08T07:38:18;18.00;99.90
25983;DHT22;13773;48.868;10.730;2023-09-08T07:40:44;18.00;99.90
25983;DHT22;13773;48.868;10.730;2023-09-08T07:43:10;18.10;99.90
25983;DHT22;13773;48.868;10.730;2023-09-08T07:45:35;18.10;99.90
25983;DHT22;13773;48.868;10.730;2023-09-08T07:48:01;18.30;99.90
25983;DHT22;13773;48.868;10.730;2023-09-08T07:50:28;18.30;99.90
25983;DHT22;13773;48.868;10.730;2023-09-08T07:52:56;18.50;99.90
25983;DHT22;13773;48.868;10.730;2023-09-08T07:55:23;18.60;99.90
25983;DHT22;13773;48.868;10.730;2023-09-08T07:57:49;18.70;99.90
25983;DHT22;13773;48.868;10.730;2023-09-08T08:00:16;18.80;99.90
25983;DHT22;13773;48.868;10.730;2023-09-08T08:02:51;19.00;99.90
25983;DHT22;13773;48.868;10.730;2023-09-08T08:05:17;19.10;99.90
25983;DHT22;13773;48.868;10.730;2023-09-08T08:07:43;19.00;99.90
25983;DHT22;13773;48.868;10.730;2023-09-08T08:10:10;19.20;99.90
25983;DHT22;13773;48.868;10.730;2023-09-08T08:12:36;19.30;99.90
25983;DHT22;13773;48.868;10.730;2023-09-08T08:15:02;19.60;99.90
25983;DHT22;13773;48.868;10.730;2023-09-08T08:17:28;19.60;99.90
25983;DHT22;13773;48.868;10.730;2023-09-08T08:19:55;19.40;99.90
25983;DHT22;13773;48.868;10.730;2023-09-08T08:22:21;19.50;99.90
25983;DHT22;13773;48.868;10.730;2023-09-08T08:24:47;19.70;99.90
25983;DHT22;13773;48.868;10.730;2023-09-08T08:27:12;19.70;99.90
25983;DHT22;13773;48.868;10.730;2023-09-08T08:29:39;19.80;99.90
25983;DHT22;13773;48.868;10.730;2023-09-08T08:32:05;20.00;99.90
25983;DHT22;13773;48.868;10.730;2023-09-08T08:34:31;20.00;99.90
25983;DHT22;13773;48.868;10.730;2023-09-08T08:36:57;20.10;99.90
25983;DHT22;13773;48.868;10.730;2023-09-08T08:39:23;20.20;99.90
25983;DHT22;13773;48.868;10.730;2023-09-08T08:41:48;20.10;99.90
25983;DHT22;13773;48.868;10.730;2023-09-08T08:44:15;20.20;99.90
25983;DHT22;13773;48.868;10.730;2023-09-08T08:46:43;20.20;99.90
25983;DHT22;13773;48.868;10.730;2023-09-08T08:49:09;20.30;99.90
25983;DHT22;13773;48.868;10.730;2023-09-08T08:51:36;20.30;99.90
25983;DHT22;13773;48.868;10.730;2023-09-08T08:54:03;20.40;99.90
25983;DHT22;13773;48.868;10.730;2023-09-08T08:56:34;20.60;99.90
25983;DHT22;13773;48.868;10.730;2023-09-08T08:59:01;20.30;99.90
25983;DHT22;13773;48.868;10.730;2023-09-08T09:01:27;20.70;99.90
25983;DHT22;13773;48.868;10.730;2023-09-08T09:03:54;20.80;99.90
25983;DHT22;13773;48.868;10.730;2023-09-08T09:06:21;20.80;99.90
25983;DHT22;13773;48.868;10.730;2023-09-08T09:08:46;20.90;99.90
25983;DHT22;13773;48.868;10.730;2023-09-08T09:11:13;20.80;99.90
25983;DHT22;13773;48.868;10.730;2023-09-08T09:13:39;20.90;99.90
25983;DHT22;13773;48.868;10.730;2023-09-08T09:16:05;21.20;99.90
25983;DHT22;13773;48.868;10.730;2023-09-08T09:21:18;21.20;99.90
25983;DHT22;13773;48.868;10.730;2023-09-08T09:23:44;21.10;99.90
25983;DHT22;13773;48.868;10.730;2023-09-08T09:26:10;21.30;99.90
25983;DHT22;13773;48.868;10.730;2023-09-08T09:28:48;21.50;99.90
25983;DHT22;13773;48.868;10.730;2023-09-08T09:31:14;21.50;99.90
25983;DHT22;13773;48.868;10.730;2023-09-08T09:33:39;21.60;99.90
25983;DHT22;13773;48.868;10.730;2023-09-08T09:36:05;21.80;99.90
25983;DHT22;13773;48.868;10.730;2023-09-08T09:38:35;22.00;99.90
25983;DHT22;13773;48.868;10.730;2023-09-08T09:41:00;22.20;99.90
25983;DHT22;13773;48.868;10.730;2023-09-08T09:43:28;22.20;99.90
25983;DHT22;13773;48.868;10.730;2023-09-08T09:45:55;22.40;99.90
25983;DHT22;13773;48.868;10.730;2023-09-08T09:48:21;22.50;99.90
25983;DHT22;13773;48.868;10.730;2023-09-08T09:50:49;22.50;99.90
25983;DHT22;13773;48.868;10.730;2023-09-08T09:53:16;22.40;99.90
25983;DHT22;13773;48.868;10.730;2023-09-08T09:55:45;22.50;99.90
25983;DHT22;13773;48.868;10.730;2023-09-08T09:58:12;22.70;99.90
25983;DHT22;13773;48.868;10.730;2023-09-08T10:00:38;22.80;99.90
25983;DHT22;13773;48.868;10.730;2023-09-08T10:03:06;22.90;99.90
25983;DHT22;13773;48.868;10.730;2023-09-08T10:05:32;22.90;99.90
25983;DHT22;13773;48.868;10.730;2023-09-08T10:07:59;22.80;99.90
25983;DHT22;13773;48.868;10.730;2023-09-08T10:10:26;22.90;99.90
25983;DHT22;13773;48.868;10.730;2023-09-08T10:12:53;23.00;99.90
25983;DHT22;13773;48.868;10.730;2023-09-08T10:15:21;23.20;99.90
25983;DHT22;13773;48.868;10.730;2023-09-08T10:17:54;22.80;99.90
25983;DHT22;13773;48.868;10.730;2023-09-08T10:20:27;23.10;99.90
25983;DHT22;13773;48.868;10.730;2023-09-08T10:23:23;23.20;99.90
25983;DHT22;13773;48.868;10.730;2023-09-08T10:25:52;23.20;99.90
25983;DHT22;13773;48.868;10.730;2023-09-08T10:28:23;23.20;99.90
25983;DHT22;13773;48.868;10.730;2023-09-08T10:30:51;23.40;99.90
25983;DHT22;13773;48.868;10.730;2023-09-08T10:33:18;23.50;99.90
25983;DHT22;13773;48.868;10.730;2023-09-08T10:35:45;23.70;99.90
25983;DHT22;13773;48.868;10.730;2023-09-08T10:38:27;23.80;99.90
25983;DHT22;13773;48.868;10.730;2023-09-08T10:44:00;23.60;99.90
25983;DHT22;13773;48.868;10.730;2023-09-08T10:46:28;23.60;99.90
25983;DHT22;13773;48.868;10.730;2023-09-08T10:48:55;23.60;99.90
25983;DHT22;13773;48.868;10.730;2023-09-08T10:51:25;23.50;99.90
25983;DHT22;13773;48.868;10.730;2023-09-08T10:53:51;23.60;99.90
25983;DHT22;13773;48.868;10.730;2023-09-08T10:56:17;23.70;99.90
25983;DHT22;13773;48.868;10.730;2023-09-08T10:58:51;23.80;99.90
25983;DHT22;13773;48.868;10.730;2023-09-08T11:01:20;24.10;99.90
25983;DHT22;13773;48.868;10.730;2023-09-08T11:03:52;24.30;99.90
25983;DHT22;13773;48.868;10.730;2023-09-08T11:06:20;24.40;99.90
25983;DHT22;13773;48.868;10.730;2023-09-08T11:08:48;24.10;99.90
25983;DHT22;13773;48.868;10.730;2023-09-08T11:11:15;24.20;99.90
25983;DHT22;13773;48.868;10.730;2023-09-08T11:13:42;24.50;99.90
25983;DHT22;13773;48.868;10.730;2023-09-08T11:16:11;24.20;99.90
25983;DHT22;13773;48.868;10.730;2023-09-08T11:18:37;24.50;99.90
25983;DHT22;13773;48.868;10.730;2023-09-08T11:21:08;24.70;99.90
25983;DHT22;13773;48.868;10.730;2023-09-08T11:23:34;24.90;99.90
25983;DHT22;13773;48.868;10.730;2023-09-08T11:26:00;24.90;99.90
25983;DHT22;13773;48.868;10.730;2023-09-08T11:28:27;24.90;99.90
25983;DHT22;13773;48.868;10.730;2023-09-08T11:30:54;24.80;99.90
25983;DHT22;13773;48.868;10.730;2023-09-08T11:33:22;24.80;99.90
25983;DHT22;13773;48.868;10.730;2023-09-08T11:35:52;24.90;99.90
25983;DHT22;13773;48.868;10.730;2023-09-08T11:38:28;24.60;99.90
25983;DHT22;13773;48.868;10.730;2023-09-08T11:40:56;24.60;99.90
25983;DHT22;13773;48.868;10.730;2023-09-08T11:43:23;24.60;99.90
25983;DHT22;13773;48.868;10.730;2023-09-08T11:45:49;24.50;99.90
25983;DHT22;13773;48.868;10.730;2023-09-08T11:48:15;24.60;99.90
25983;DHT22;13773;48.868;10.730;2023-09-08T11:50:44;24.90;99.90
25983;DHT22;13773;48.868;10.730;2023-09-08T11:53:10;25.20;99.90
25983;DHT22;13773;48.868;10.730;2023-09-08T11:55:36;25.30;99.90
25983;DHT22;13773;48.868;10.730;2023-09-08T11:58:05;24.90;99.90
25983;DHT22;13773;48.868;10.730;2023-09-08T12:00:31;24.80;99.90
25983;DHT22;13773;48.868;10.730;2023-09-08T12:03:12;24.90;99.90
25983;DHT22;13773;48.868;10.730;2023-09-08T12:05:39;25.20;99.90
25983;DHT22;13773;48.868;10.730;2023-09-08T12:08:06;25.50;99.90
25983;DHT22;13773;48.868;10.730;2023-09-08T12:10:42;25.30;99.90
25983;DHT22;13773;48.868;10.730;2023-09-08T12:13:08;25.30;99.90
25983;DHT22;13773;48.868;10.730;2023-09-08T12:15:41;25.50;99.90
25983;DHT22;13773;48.868;10.730;2023-09-08T12:18:09;25.40;99.90
25983;DHT22;13773;48.868;10.730;2023-09-08T12:20:36;25.10;99.90
25983;DHT22;13773;48.868;10.730;2023-09-08T12:23:19;25.30;99.90
25983;DHT22;13773;48.868;10.730;2023-09-08T12:25:52;25.50;99.90
25983;DHT22;13773;48.868;10.730;2023-09-08T12:28:21;25.70;99.90
25983;DHT22;13773;48.868;10.730;2023-09-08T12:30:49;26.00;99.90
25983;DHT22;13773;48.868;10.730;2023-09-08T12:33:15;25.70;99.90
25983;DHT22;13773;48.868;10.730;2023-09-08T12:35:44;25.50;99.90
25983;DHT22;13773;48.868;10.730;2023-09-08T12:38:10;25.60;99.90
25983;DHT22;13773;48.868;10.730;2023-09-08T12:40:37;25.90;99.90
25983;DHT22;13773;48.868;10.730;2023-09-08T12:43:04;26.00;99.90
25983;DHT22;13773;48.868;10.730;2023-09-08T12:45:30;25.90;99.90
25983;DHT22;13773;48.868;10.730;2023-09-08T12:47:58;25.90;99.90
25983;DHT22;13773;48.868;10.730;2023-09-08T12:50:27;25.60;99.90
25983;DHT22;13773;48.868;10.730;2023-09-08T12:52:53;25.90;99.90
25983;DHT22;13773;48.868;10.730;2023-09-08T12:55:20;26.10;99.90
25983;DHT22;13773;48.868;10.730;2023-09-08T12:57:45;26.10;99.90
25983;DHT22;13773;48.868;10.730;2023-09-08T13:00:13;26.00;99.90
25983;DHT22;13773;48.868;10.730;2023-09-08T13:02:40;26.00;99.90
25983;DHT22;13773;48.868;10.730;2023-09-08T13:05:07;26.30;99.90
25983;DHT22;13773;48.868;10.730;2023-09-08T13:07:33;26.40;99.90
25983;DHT22;13773;48.868;10.730;2023-09-08T13:09:59;26.10;99.90
25983;DHT22;13773;48.868;10.730;2023-09-08T13:12:25;25.90;99.90
25983;DHT22;13773;48.868;10.730;2023-09-08T13:14:50;26.10;99.90
25983;DHT22;13773;48.868;10.730;2023-09-08T13:17:16;26.20;99.90
25983;DHT22;13773;48.868;10.730;2023-09-08T13:19:43;26.30;99.90
25983;DHT22;13773;48.868;10.730;2023-09-08T13:22:09;26.30;99.90
25983;DHT22;13773;48.868;10.730;2023-09-08T13:24:35;26.10;99.90
25983;DHT22;13773;48.868;10.730;2023-09-08T13:27:01;26.10;99.90
25983;DHT22;13773;48.868;10.730;2023-09-08T13:29:27;26.00;99.90
25983;DHT22;13773;48.868;10.730;2023-09-08T13:31:53;26.40;99.90
25983;DHT22;13773;48.868;10.730;2023-09-08T13:34:20;26.60;99.90
25983;DHT22;13773;48.868;10.730;2023-09-08T13:36:47;26.80;99.90
25983;DHT22;13773;48.868;10.730;2023-09-08T13:39:12;26.80;99.90
25983;DHT22;13773;48.868;10.730;2023-09-08T13:41:51;26.70;99.90
25983;DHT22;13773;48.868;10.730;2023-09-08T13:44:21;26.90;99.90
25983;DHT22;13773;48.868;10.730;2023-09-08T13:46:51;27.10;99.90
25983;DHT22;13773;48.868;10.730;2023-09-08T13:49:17;27.20;99.90
25983;DHT22;13773;48.868;10.730;2023-09-08T13:51:44;27.30;99.90
25983;DHT22;13773;48.868;10.730;2023-09-08T13:54:10;27.20;99.90
25983;DHT22;13773;48.868;10.730;2023-09-08T13:56:41;27.00;99.90
25983;DHT22;13773;48.868;10.730;2023-09-08T13:59:07;26.80;99.90
25983;DHT22;13773;48.868;10.730;2023-09-08T14:01:34;26.80;99.90
25983;DHT22;13773;48.868;10.730;2023-09-08T14:04:00;26.40;99.90
25983;DHT22;13773;48.868;10.730;2023-09-08T14:06:27;26.60;99.90
25983;DHT22;13773;48.868;10.730;2023-09-08T14:08:53;26.70;99.90
25983;DHT22;13773;48.868;10.730;2023-09-08T14:11:19;26.60;99.90
25983;DHT22;13773;48.868;10.730;2023-09-08T14:13:45;26.50;99.90
25983;DHT22;13773;48.868;10.730;2023-09-08T14:16:13;26.40;99.90
25983;DHT22;13773;48.868;10.730;2023-09-08T14:18:39;26.60;99.90
25983;DHT22;13773;48.868;10.730;2023-09-08T14:21:05;26.60;99.90
25983;DHT22;13773;48.868;10.730;2023-09-08T14:23:32;26.70;99.90
25983;DHT22;13773;48.868;10.730;2023-09-08T14:25:59;26.80;99.90
25983;DHT22;13773;48.868;10.730;2023-09-08T14:28:25;26.80;99.90
25983;DHT22;13773;48.868;10.730;2023-09-08T14:30:52;26.80;99.90
25983;DHT22;13773;48.868;10.730;2023-09-08T14:33:18;26.90;99.90
25983;DHT22;13773;48.868;10.730;2023-09-08T14:35:44;26.60;99.90
25983;DHT22;13773;48.868;10.730;2023-09-08T14:38:12;26.60;99.90
25983;DHT22;13773;48.868;10.730;2023-09-08T14:40:38;26.50;99.90
25983;DHT22;13773;48.868;10.730;2023-09-08T14:43:04;26.20;99.90
25983;DHT22;13773;48.868;10.730;2023-09-08T14:45:29;26.30;99.90
25983;DHT22;13773;48.868;10.730;2023-09-08T14:47:55;26.40;99.90
25983;DHT22;13773;48.868;10.730;2023-09-08T14:50:21;26.30;99.90
25983;DHT22;13773;48.868;10.730;2023-09-08T14:52:46;26.30;99.90
25983;DHT22;13773;48.868;10.730;2023-09-08T14:55:12;26.50;99.90
25983;DHT22;13773;48.868;10.730;2023-09-08T14:57:37;26.50;99.90
25983;DHT22;13773;48.868;10.730;2023-09-08T15:00:04;26.40;99.90
25983;DHT22;13773;48.868;10.730;2023-09-08T15:02:31;26.40;99.90
25983;DHT22;13773;48.868;10.730;2023-09-08T15:04:57;26.10;99.90
25983;DHT22;13773;48.868;10.730;2023-09-08T15:07:22;26.20;99.90
25983;DHT22;13773;48.868;10.730;2023-09-08T15:09:48;26.30;99.90
25983;DHT22;13773;48.868;10.730;2023-09-08T15:12:16;26.50;99.90
25983;DHT22;13773;48.868;10.730;2023-09-08T15:14:42;26.40;99.90
25983;DHT22;13773;48.868;10.730;2023-09-08T15:17:07;26.40;99.90
25983;DHT22;13773;48.868;10.730;2023-09-08T15:19:33;26.40;99.90
25983;DHT22;13773;48.868;10.730;2023-09-08T15:21:59;26.30;99.90